Time;durP1;ratioP1;P1;durP2;ratioP2;P2;SDS_P1;SDS_P2;PMS_P1;PMS_P2;Temp;Humidity;BMP_temperature;BMP_pressure;BME280_temperature;BME280_humidity;BME280_pressure;Samples;Min_cycle;Max_cycle;Signal;HPM_P1;HPM_P2
2022/04/21 00:01:31;;;;;;;12.30;9.07;;;8.50;99.90;;;;;;5013470;28;20190;-92
2022/04/21 00:03:56;;;;;;;11.85;8.95;;;8.50;99.90;;;;;;5016492;28;20204;-88
2022/04/21 00:06:22;;;;;;;13.27;10.30;;;8.50;99.90;;;;;;5016062;28;20175;-88
2022/04/21 00:08:48;;;;;;;14.40;9.90;;;8.50;99.90;;;;;;5012332;28;20202;-90
2022/04/21 00:11:14;;;;;;;12.53;9.00;;;8.40;99.90;;;;;;5009807;28;178539;-92
2022/04/21 00:13:39;;;;;;;13.77;9.50;;;8.40;99.90;;;;;;5014828;28;20209;-92
2022/04/21 00:16:05;;;;;;;11.50;9.90;;;8.40;99.90;;;;;;5023836;28;20934;-91
2022/04/21 00:18:31;;;;;;;11.80;8.98;;;8.40;99.90;;;;;;5036219;28;20206;-92
2022/04/21 00:21:01;;;;;;;17.13;10.90;;;8.30;99.90;;;;;;5053720;28;20649;-92
2022/04/21 00:23:27;;;;;;;14.30;9.85;;;8.30;99.90;;;;;;5053502;28;20201;-92
2022/04/21 00:25:59;;;;;;;13.15;9.43;;;8.30;99.90;;;;;;5053964;28;20627;-93
2022/04/21 00:28:26;;;;;;;14.40;10.35;;;8.20;99.90;;;;;;5036337;28;20293;-91
2022/04/21 00:30:51;;;;;;;16.00;10.80;;;8.20;99.90;;;;;;5054768;28;20178;-87
2022/04/21 00:33:17;;;;;;;13.63;10.00;;;8.20;99.90;;;;;;5037510;28;20685;-92
2022/04/21 00:35:43;;;;;;;14.67;9.03;;;8.20;99.90;;;;;;5036657;28;20181;-89
2022/04/21 00:38:08;;;;;;;13.33;10.83;;;8.10;99.90;;;;;;5035952;28;20783;-88
2022/04/21 00:40:34;;;;;;;17.77;11.93;;;8.10;99.90;;;;;;5043036;28;20666;-88
2022/04/21 00:43:00;;;;;;;12.83;10.53;;;8.10;99.90;;;;;;5042132;28;20262;-87
2022/04/21 00:45:28;;;;;;;18.92;12.45;;;8.10;99.90;;;;;;5056714;28;20437;-92
2022/04/21 00:47:56;;;;;;;17.73;12.02;;;8.10;99.90;;;;;;5038972;28;20221;-87
2022/04/21 00:50:33;;;;;;;12.98;9.70;;;8.00;99.90;;;;;;5056160;28;20194;-93
2022/04/21 00:53:00;;;;;;;14.85;10.25;;;8.00;99.90;;;;;;5037015;28;20193;-89
2022/04/21 00:55:26;;;;;;;14.88;10.43;;;7.90;99.90;;;;;;5055919;28;20174;-89
2022/04/21 00:57:53;;;;;;;14.77;9.30;;;7.90;99.90;;;;;;5038292;28;20201;-88
2022/04/21 01:00:19;;;;;;;16.67;11.38;;;7.90;99.90;;;;;;5037937;28;20182;-88
2022/04/21 01:02:52;;;;;;;13.63;9.52;;;7.90;99.90;;;;;;5055838;28;20595;-88
2022/04/21 01:05:30;;;;;;;14.05;10.30;;;7.90;99.90;;;;;;5037060;28;20249;-93
2022/04/21 01:08:00;;;;;;;16.23;11.10;;;7.80;99.90;;;;;;5037875;28;20200;-88
2022/04/21 01:10:28;;;;;;;18.98;11.82;;;7.80;99.90;;;;;;5055492;28;20236;-93
2022/04/21 01:12:54;;;;;;;23.35;13.10;;;7.70;99.90;;;;;;5038522;28;20194;-93
2022/04/21 01:15:20;;;;;;;20.25;14.05;;;7.70;99.90;;;;;;5054546;28;20189;-92
2022/04/21 01:17:46;;;;;;;23.00;14.02;;;7.70;99.90;;;;;;5016540;28;20597;-91
2022/04/21 01:20:16;;;;;;;19.57;14.20;;;7.70;99.90;;;;;;5023668;28;20195;-92
2022/04/21 01:22:42;;;;;;;21.77;14.30;;;7.70;99.90;;;;;;5029971;28;20179;-91
2022/04/21 01:25:08;;;;;;;13.70;10.90;;;7.60;99.90;;;;;;5023471;28;20247;-91
2022/04/21 01:27:37;;;;;;;18.03;12.80;;;7.60;99.90;;;;;;5014745;28;20585;-92
2022/04/21 01:30:05;;;;;;;16.35;11.90;;;7.50;99.90;;;;;;5018318;28;20498;-92
2022/04/21 01:32:35;;;;;;;16.58;11.55;;;7.60;99.90;;;;;;5018695;28;20223;-88
2022/04/21 01:35:05;;;;;;;19.35;11.40;;;7.50;99.90;;;;;;5025331;28;20180;-93
2022/04/21 01:42:59;;;;;;;15.05;10.93;;;7.40;99.90;;;;;;5013506;28;20237;-89
2022/04/21 01:45:25;;;;;;;13.50;10.23;;;7.40;99.90;;;;;;5014133;28;20179;-89
2022/04/21 01:47:50;;;;;;;13.40;9.93;;;7.40;99.90;;;;;;5015616;28;20198;-91
2022/04/21 01:50:16;;;;;;;15.07;10.70;;;7.30;99.90;;;;;;5013654;28;20203;-93
2022/04/21 01:52:42;;;;;;;18.60;11.20;;;7.20;99.90;;;;;;5012747;28;20191;-91
2022/04/21 01:55:08;;;;;;;21.03;12.33;;;7.20;99.90;;;;;;5013000;28;20263;-88
2022/04/21 01:57:34;;;;;;;15.27;12.00;;;7.10;99.90;;;;;;5013539;28;20199;-88
2022/04/21 02:00:01;;;;;;;21.30;12.90;;;7.10;99.90;;;;;;5012693;28;20190;-88
2022/04/21 02:02:26;;;;;;;36.80;21.05;;;7.00;99.90;;;;;;5013432;28;20234;-92
2022/04/21 02:04:52;;;;;;;33.97;19.57;;;6.90;99.90;;;;;;5012913;28;20595;-88
2022/04/21 02:07:18;;;;;;;41.40;21.33;;;6.90;99.90;;;;;;5012104;28;20227;-88
2022/04/21 02:09:43;;;;;;;27.17;18.17;;;6.80;99.90;;;;;;5014652;28;20330;-88
2022/04/21 02:12:11;;;;;;;39.80;19.30;;;6.80;99.90;;;;;;5015097;28;20293;-92
2022/04/21 02:14:37;;;;;;;27.52;15.15;;;6.70;99.90;;;;;;5015104;28;20202;-88
2022/04/21 02:17:05;;;;;;;23.40;15.43;;;6.70;99.90;;;;;;5031076;28;20189;-88
2022/04/21 02:19:31;;;;;;;26.50;15.52;;;6.60;99.90;;;;;;5036311;28;20186;-92
2022/04/21 02:21:56;;;;;;;23.47;15.83;;;6.60;99.90;;;;;;5054777;28;20261;-93
2022/04/21 02:24:22;;;;;;;22.97;14.33;;;6.50;99.90;;;;;;5058056;28;20221;-89
2022/04/21 02:26:48;;;;;;;22.10;14.90;;;6.50;99.90;;;;;;5066446;28;20174;-92
2022/04/21 02:29:13;;;;;;;20.17;13.40;;;6.40;99.90;;;;;;5068792;28;20174;-88
2022/04/21 02:31:39;;;;;;;21.53;14.40;;;6.40;99.90;;;;;;5055242;28;20174;-92
2022/04/21 02:34:05;;;;;;;19.97;14.30;;;6.40;99.90;;;;;;5034423;28;20205;-91
2022/04/21 02:36:30;;;;;;;24.03;14.30;;;6.40;99.90;;;;;;5033754;28;20189;-89
2022/04/21 02:38:56;;;;;;;20.97;14.30;;;6.40;99.90;;;;;;5051251;28;20165;-88
2022/04/21 02:41:22;;;;;;;21.20;13.40;;;6.40;99.90;;;;;;5051639;28;20206;-90
2022/04/21 02:43:47;;;;;;;20.33;12.43;;;6.40;99.90;;;;;;5034360;28;20212;-91
2022/04/21 02:46:13;;;;;;;20.87;13.43;;;6.40;99.90;;;;;;5052890;28;20206;-92
2022/04/21 02:48:39;;;;;;;19.80;12.70;;;6.40;99.90;;;;;;5053323;28;20228;-92
2022/04/21 02:51:05;;;;;;;19.65;13.57;;;6.30;99.90;;;;;;5054777;28;20178;-89
2022/04/21 02:59:00;;;;;;;18.92;13.65;;;6.30;99.90;;;;;;5051764;28;20165;-89
2022/04/21 03:01:27;;;;;;;22.60;13.60;;;6.30;99.90;;;;;;5053119;28;20166;-88
2022/04/21 03:03:54;;;;;;;20.50;13.73;;;6.40;99.90;;;;;;5052090;28;20425;-88
2022/04/21 03:06:20;;;;;;;23.15;14.20;;;6.40;99.90;;;;;;5053351;28;20174;-92
2022/04/21 03:08:46;;;;;;;24.23;15.98;;;6.40;99.90;;;;;;5056695;28;20197;-87
2022/04/21 03:11:12;;;;;;;21.15;13.27;;;6.40;99.90;;;;;;5041138;28;20736;-88
2022/04/21 03:13:38;;;;;;;22.27;13.97;;;6.40;99.90;;;;;;5040408;28;20202;-88
2022/04/21 03:16:04;;;;;;;20.40;12.53;;;6.50;99.90;;;;;;5040129;28;20186;-89
2022/04/21 03:18:29;;;;;;;22.13;14.32;;;6.50;99.90;;;;;;5040108;28;20278;-88
2022/04/21 03:26:23;;;;;;;20.83;13.18;;;6.60;99.90;;;;;;5068433;28;20184;-90
2022/04/21 03:28:49;;;;;;;17.00;11.27;;;6.70;99.90;;;;;;5055713;28;20202;-91
2022/04/21 03:31:15;;;;;;;20.83;12.90;;;6.70;99.90;;;;;;5038768;28;20182;-91
2022/04/21 03:33:41;;;;;;;22.53;12.60;;;6.80;99.90;;;;;;5036339;28;20393;-88
2022/04/21 03:36:07;;;;;;;18.35;12.20;;;6.80;99.90;;;;;;5036400;28;20273;-88
2022/04/21 03:38:32;;;;;;;21.17;14.17;;;6.90;99.90;;;;;;5053920;28;20692;-88
2022/04/21 03:40:58;;;;;;;23.63;13.57;;;6.90;99.90;;;;;;5036958;28;20277;-93
2022/04/21 03:43:24;;;;;;;27.00;14.20;;;7.00;99.90;;;;;;5056433;28;20473;-92
2022/04/21 03:45:50;;;;;;;27.90;15.00;;;7.00;99.90;;;;;;5038612;28;20194;-93
2022/04/21 03:48:16;;;;;;;29.97;16.33;;;7.00;99.90;;;;;;5058022;28;20280;-92
2022/04/21 03:50:43;;;;;;;20.90;13.38;;;7.00;99.90;;;;;;5037192;28;20193;-92
2022/04/21 03:53:08;;;;;;;17.25;11.90;;;7.00;99.90;;;;;;5055507;28;20602;-93
2022/04/21 03:55:34;;;;;;;20.20;13.23;;;6.90;99.90;;;;;;5055544;28;20220;-93
2022/04/21 03:58:00;;;;;;;29.80;14.53;;;6.90;99.90;;;;;;5037685;28;20193;-89
2022/04/21 04:00:26;;;;;;;20.27;13.03;;;6.80;99.90;;;;;;5038700;28;20644;-92
2022/04/21 04:02:51;;;;;;;21.00;13.80;;;6.80;99.90;;;;;;5038061;28;20270;-89
2022/04/21 04:05:17;;;;;;;27.07;16.17;;;6.70;99.90;;;;;;5056755;28;20189;-88
2022/04/21 04:13:11;;;;;;;18.23;12.55;;;6.50;99.90;;;;;;5055496;28;20239;-94
2022/04/21 04:15:37;;;;;;;19.73;13.33;;;6.30;99.90;;;;;;5050782;28;20196;-94
2022/04/21 04:18:02;;;;;;;23.73;13.90;;;6.30;99.90;;;;;;5016031;28;20237;-88
2022/04/21 04:20:28;;;;;;;21.07;14.00;;;6.30;99.90;;;;;;5014667;28;20207;-88
2022/04/21 04:22:54;;;;;;;31.67;18.60;;;6.20;99.90;;;;;;5021196;28;20194;-87
2022/04/21 04:25:19;;;;;;;39.73;21.27;;;6.20;99.90;;;;;;5025850;28;20229;-93
2022/04/21 04:27:45;;;;;;;39.03;22.70;;;6.30;99.90;;;;;;5026115;28;20195;-90
2022/04/21 04:30:11;;;;;;;45.20;24.47;;;6.30;99.90;;;;;;5021405;28;20215;-87
2022/04/21 04:32:37;;;;;;;55.03;25.60;;;6.30;99.90;;;;;;5015515;28;20208;-88
2022/04/21 04:35:04;;;;;;;42.53;24.27;;;6.40;99.90;;;;;;5015180;28;20191;-94
2022/04/21 04:37:30;;;;;;;59.10;33.53;;;6.40;99.90;;;;;;5014957;28;20794;-93
2022/04/21 04:39:55;;;;;;;56.57;33.40;;;6.50;99.90;;;;;;5012484;28;20183;-87
2022/04/21 04:42:22;;;;;;;60.73;33.50;;;6.50;99.90;;;;;;5015296;28;20223;-94
2022/04/21 04:46:34;;;;;;;67.15;33.60;;;6.50;99.90;;;;;;5013657;28;20230;-95
2022/04/21 04:47:38;;;;;;;50.85;27.58;;;6.40;99.90;;;;;;5013387;28;20285;-95
2022/04/21 04:50:05;;;;;;;52.85;29.65;;;6.40;99.90;;;;;;5013228;28;20183;-88
2022/04/21 04:52:30;;;;;;;54.88;30.67;;;6.50;99.90;;;;;;5012009;28;20192;-95
2022/04/21 04:54:56;;;;;;;64.80;33.57;;;6.50;99.90;;;;;;5012878;28;20186;-95
2022/04/21 04:57:23;;;;;;;68.65;31.85;;;6.40;99.90;;;;;;5012970;28;20225;-89
2022/04/21 04:59:48;;;;;;;66.10;31.52;;;6.40;99.90;;;;;;5013437;28;20187;-95
2022/04/21 05:02:14;;;;;;;62.17;30.20;;;6.40;99.90;;;;;;5013527;28;20716;-95
2022/04/21 05:04:40;;;;;;;67.13;31.40;;;6.40;99.90;;;;;;5012835;28;20230;-89
2022/04/21 05:07:06;;;;;;;46.40;25.13;;;6.40;99.90;;;;;;5014190;28;20471;-94
2022/04/21 05:09:31;;;;;;;47.67;26.30;;;6.30;99.90;;;;;;5016330;28;20450;-88
2022/04/21 05:11:57;;;;;;;56.93;27.60;;;6.30;99.90;;;;;;5034035;28;20197;-96
2022/04/21 05:14:25;;;;;;;33.60;20.53;;;6.30;99.90;;;;;;5033473;28;20183;-87
2022/04/21 05:16:51;;;;;;;27.45;16.88;;;6.30;99.90;;;;;;5048011;27;20499;-95
2022/04/21 05:19:19;;;;;;;27.25;17.08;;;6.30;99.90;;;;;;5105361;27;20265;-88
2022/04/21 05:21:47;;;;;;;25.40;16.63;;;6.30;99.90;;;;;;5086385;27;20199;-94
2022/04/21 05:24:13;;;;;;;30.10;17.58;;;6.30;99.90;;;;;;5130502;27;20223;-95
2022/04/21 05:26:40;;;;;;;29.73;17.30;;;6.30;99.90;;;;;;5088953;28;20182;-88
2022/04/21 05:32:01;;;;;;;30.42;17.30;;;6.40;99.90;;;;;;5038527;28;20222;-95
2022/04/21 05:34:28;;;;;;;27.67;16.52;;;6.40;99.90;;;;;;5057601;27;20639;-88
2022/04/21 05:36:55;;;;;;;31.08;17.60;;;6.50;99.90;;;;;;5117405;27;20285;-88
2022/04/21 05:39:21;;;;;;;25.00;17.88;;;6.60;99.90;;;;;;5048269;28;20191;-95
2022/04/21 05:41:47;;;;;;;26.15;14.45;;;6.60;99.90;;;;;;5042005;27;20252;-95
2022/04/21 05:44:13;;;;;;;28.52;18.98;;;6.70;99.90;;;;;;5046577;27;20222;-88
2022/04/21 05:46:39;;;;;;;27.40;16.50;;;6.80;99.90;;;;;;5058233;27;20553;-95
2022/04/21 05:49:05;;;;;;;30.33;18.30;;;6.90;99.90;;;;;;5121843;27;20206;-87
2022/04/21 05:51:31;;;;;;;30.90;18.40;;;7.00;99.90;;;;;;5070474;27;20198;-95
2022/04/21 05:53:58;;;;;;;23.30;15.85;;;7.10;99.90;;;;;;5135612;27;20385;-89
2022/04/21 05:56:25;;;;;;;29.45;18.23;;;7.20;99.90;;;;;;5117441;27;20182;-96
2022/04/21 05:58:51;;;;;;;30.45;16.67;;;7.30;99.90;;;;;;5055466;27;20178;-88
2022/04/21 06:01:17;;;;;;;25.48;17.95;;;7.40;99.90;;;;;;5056691;28;20198;-88
2022/04/21 06:03:43;;;;;;;29.90;17.80;;;7.60;99.90;;;;;;5010073;28;20302;-88
2022/04/21 06:06:10;;;;;;;22.37;14.50;;;7.70;99.90;;;;;;5024607;28;20216;-88
2022/04/21 06:08:36;;;;;;;29.20;15.25;;;7.80;99.90;;;;;;5008951;28;20194;-89
2022/04/21 06:11:03;;;;;;;23.92;15.95;;;8.00;99.90;;;;;;5075076;28;20438;-89
2022/04/21 06:13:30;;;;;;;28.02;15.63;;;8.10;99.90;;;;;;5101892;28;20188;-88
2022/04/21 06:15:58;;;;;;;28.65;17.80;;;8.20;99.90;;;;;;5100184;28;20264;-92
2022/04/21 06:18:25;;;;;;;25.70;17.25;;;8.30;99.90;;;;;;5084179;28;20612;-95
2022/04/21 06:20:54;;;;;;;28.48;16.67;;;8.50;99.90;;;;;;5087385;28;20180;-95
2022/04/21 06:23:21;;;;;;;27.48;16.90;;;8.60;99.90;;;;;;5087943;28;20658;-89
2022/04/21 06:25:47;;;;;;;24.65;14.32;;;8.80;99.90;;;;;;5093816;28;20198;-96
2022/04/21 06:28:13;;;;;;;22.80;13.55;;;8.90;99.90;;;;;;5094200;28;20282;-96
2022/04/21 06:30:39;;;;;;;22.63;15.30;;;9.00;99.90;;;;;;5106377;28;20207;-88
2022/04/21 06:33:06;;;;;;;22.17;14.88;;;9.10;99.90;;;;;;5099946;28;20198;-88
2022/04/21 06:35:33;;;;;;;23.65;14.63;;;9.30;99.90;;;;;;5089546;28;20692;-96
2022/04/21 06:37:58;;;;;;;26.10;15.80;;;9.40;99.90;;;;;;5113907;28;20199;-90
2022/04/21 06:40:24;;;;;;;23.00;14.33;;;9.60;99.90;;;;;;5100064;28;20179;-89
2022/04/21 06:42:50;;;;;;;28.83;16.07;;;9.80;99.90;;;;;;5123106;27;20429;-88
2022/04/21 06:48:04;;;;;;;20.85;13.52;;;10.10;99.90;;;;;;5117193;27;20248;-89
2022/04/21 06:50:34;;;;;;;23.25;15.10;;;10.20;99.90;;;;;;5099823;28;20563;-89
2022/04/21 06:53:05;;;;;;;25.48;14.85;;;10.40;99.90;;;;;;5099296;28;20260;-89
2022/04/21 06:55:31;;;;;;;22.17;14.38;;;10.60;99.90;;;;;;5093030;28;20192;-95
2022/04/21 06:57:57;;;;;;;27.73;16.73;;;10.70;99.90;;;;;;5097022;28;20207;-96
2022/04/21 07:00:25;;;;;;;19.40;14.10;;;10.80;99.90;;;;;;5099063;28;20440;-89
2022/04/21 07:02:52;;;;;;;26.42;14.27;;;11.00;99.90;;;;;;5098525;28;20442;-90
2022/04/21 07:05:18;;;;;;;22.38;14.27;;;11.10;99.90;;;;;;5097957;28;20523;-89
2022/04/21 07:07:44;;;;;;;22.63;15.07;;;11.20;99.90;;;;;;5099604;28;20214;-95
2022/04/21 07:10:11;;;;;;;21.30;14.33;;;11.40;99.90;;;;;;5072768;28;20468;-90
2022/04/21 07:12:37;;;;;;;21.30;14.80;;;11.50;99.90;;;;;;5012706;28;20451;-89
2022/04/21 07:15:06;;;;;;;17.30;13.18;;;11.60;99.90;;;;;;5012868;28;20263;-89
2022/04/21 07:17:32;;;;;;;18.83;12.93;;;11.80;99.90;;;;;;5012462;27;20390;-89
2022/04/21 07:19:59;;;;;;;18.92;12.23;;;11.90;99.90;;;;;;5025512;27;20183;-96
2022/04/21 07:22:25;;;;;;;21.83;15.65;;;12.10;99.90;;;;;;5019372;28;20267;-94
2022/04/21 07:24:54;;;;;;;19.93;13.40;;;12.20;99.90;;;;;;5021418;28;20230;-87
2022/04/21 07:27:21;;;;;;;16.45;12.93;;;12.40;99.90;;;;;;5040037;28;20972;-89
2022/04/21 07:29:47;;;;;;;17.35;12.68;;;12.50;99.90;;;;;;5040968;28;20184;-89
2022/04/21 07:32:13;;;;;;;17.20;12.13;;;12.60;99.90;;;;;;5012334;28;20207;-95
2022/04/21 07:34:39;;;;;;;22.13;12.50;;;12.80;99.90;;;;;;5020410;28;20274;-89
2022/04/21 07:37:05;;;;;;;22.33;14.60;;;12.90;99.90;;;;;;4996314;28;20286;-89
2022/04/21 07:39:31;;;;;;;18.35;11.50;;;13.00;99.90;;;;;;5014475;28;20847;-88
2022/04/21 07:41:58;;;;;;;19.23;11.93;;;13.20;99.90;;;;;;4996077;28;20211;-96
2022/04/21 07:44:26;;;;;;;17.40;11.75;;;13.30;99.90;;;;;;4996150;28;20484;-89
2022/04/21 07:46:52;;;;;;;21.15;10.73;;;13.40;99.90;;;;;;5001850;28;20224;-96
2022/04/21 07:54:48;;;;;;;15.07;9.57;;;13.80;99.90;;;;;;5015079;28;20423;-96
2022/04/21 07:57:14;;;;;;;12.40;9.10;;;14.00;99.90;;;;;;5030156;28;20534;-89
2022/04/21 07:59:39;;;;;;;10.30;7.57;;;14.10;99.90;;;;;;5034180;28;20622;-89
2022/04/21 08:02:08;;;;;;;11.13;8.67;;;14.20;99.90;;;;;;5032773;28;20584;-89
2022/04/21 08:04:40;;;;;;;9.63;7.70;;;14.30;99.90;;;;;;5030562;28;20226;-89
2022/04/21 08:07:05;;;;;;;9.93;7.20;;;14.40;99.90;;;;;;5019486;28;20455;-88
2022/04/21 08:09:31;;;;;;;9.33;7.40;;;14.50;99.90;;;;;;5046860;28;20479;-89
2022/04/21 08:11:57;;;;;;;9.93;8.13;;;14.60;99.60;;;;;;5015076;28;20410;-96
2022/04/21 08:14:24;;;;;;;9.20;8.30;;;14.70;99.40;;;;;;5015602;28;20201;-89
2022/04/21 08:16:53;;;;;;;10.90;8.20;;;14.80;99.50;;;;;;5034313;28;20420;-95
2022/04/21 08:19:19;;;;;;;8.90;7.77;;;14.90;98.20;;;;;;5016448;28;20805;-95
2022/04/21 08:21:46;;;;;;;7.63;6.33;;;15.00;97.30;;;;;;5077157;27;20427;-95
2022/04/21 08:32:44;;;;;;;11.00;8.50;;;15.30;96.30;;;;;;5117839;27;20836;-89
2022/04/21 08:35:13;;;;;;;10.10;9.10;;;15.40;96.40;;;;;;5076175;28;21000;-95
2022/04/21 08:37:45;;;;;;;11.20;9.77;;;15.60;95.70;;;;;;5013084;28;20458;-95
2022/04/21 08:40:11;;;;;;;10.90;8.80;;;15.70;94.90;;;;;;5013099;28;20466;-94
2022/04/21 08:42:41;;;;;;;13.73;9.00;;;15.80;93.40;;;;;;5015105;28;20467;-94
2022/04/21 08:45:12;;;;;;;11.60;8.60;;;15.90;94.00;;;;;;5014153;28;20833;-95
2022/04/21 08:47:46;;;;;;;10.73;8.57;;;15.90;93.90;;;;;;5013145;28;20450;-89
2022/04/21 08:50:14;;;;;;;8.23;5.90;;;16.00;93.50;;;;;;5014828;28;20780;-90
2022/04/21 08:52:41;;;;;;;12.03;8.27;;;16.10;92.80;;;;;;5016962;28;20448;-88
2022/04/21 08:55:08;;;;;;;8.50;7.07;;;16.10;91.70;;;;;;5031390;28;20420;-87
2022/04/21 08:57:37;;;;;;;9.70;7.80;;;16.20;89.00;;;;;;5010818;28;20448;-95
2022/04/21 09:00:05;;;;;;;10.00;8.53;;;16.40;87.50;;;;;;5014979;28;20459;-93
2022/04/21 09:02:44;;;;;;;17.77;11.53;;;16.60;87.10;;;;;;5015057;28;20446;-88
2022/04/21 09:05:11;;;;;;;12.63;8.73;;;16.60;89.00;;;;;;5013727;28;20515;-88
2022/04/21 09:07:48;;;;;;;10.00;8.37;;;16.60;89.20;;;;;;5012500;28;20447;-88
2022/04/21 09:10:15;;;;;;;11.07;8.80;;;16.60;88.20;;;;;;5029306;28;21019;-93
2022/04/21 09:12:48;;;;;;;9.47;7.70;;;16.70;87.80;;;;;;5014830;28;20442;-93
2022/04/21 09:15:19;;;;;;;11.57;8.63;;;16.70;87.30;;;;;;5013967;28;20458;-94
2022/04/21 09:17:51;;;;;;;10.63;8.80;;;16.70;87.60;;;;;;5014631;28;20436;-88
2022/04/21 09:20:19;;;;;;;11.67;9.37;;;16.60;85.00;;;;;;5014951;28;20431;-88
2022/04/21 09:22:53;;;;;;;8.87;7.60;;;16.50;86.10;;;;;;5016476;28;20423;-87
2022/04/21 09:25:45;;;;;;;12.17;9.00;;;16.40;86.50;;;;;;5015701;28;20456;-87
2022/04/21 09:28:22;;;;;;;12.37;8.30;;;16.30;87.20;;;;;;5034911;28;20471;-94
2022/04/21 09:30:51;;;;;;;10.20;8.43;;;16.20;86.70;;;;;;5009422;28;20500;-93
2022/04/21 09:33:30;;;;;;;11.13;9.30;;;16.20;87.00;;;;;;5031912;28;20431;-93
2022/04/21 09:36:01;;;;;;;13.70;10.23;;;16.20;90.10;;;;;;5015500;28;20467;-94
2022/04/21 09:38:27;;;;;;;10.20;8.30;;;16.20;90.50;;;;;;5015623;28;20434;-87
2022/04/21 09:40:54;;;;;;;12.97;9.00;;;16.20;90.40;;;;;;5020670;28;20443;-94
2022/04/21 09:43:28;;;;;;;11.30;8.37;;;16.20;90.20;;;;;;5018922;28;20459;-94
2022/04/21 09:46:09;;;;;;;11.50;9.70;;;16.10;89.00;;;;;;5015211;28;20446;-94
2022/04/21 09:48:36;;;;;;;15.70;10.70;;;16.00;88.60;;;;;;5024670;28;20473;-95
2022/04/21 09:51:11;;;;;;;11.47;8.33;;;15.90;88.40;;;;;;5014157;28;20431;-87
2022/04/21 09:53:56;;;;;;;10.13;8.27;;;15.90;89.30;;;;;;5012810;28;20435;-87
2022/04/21 09:56:31;;;;;;;9.87;8.53;;;15.80;87.60;;;;;;5013624;28;20446;-94
2022/04/21 09:58:58;;;;;;;9.53;7.70;;;15.90;88.50;;;;;;5021474;28;20833;-93
2022/04/21 10:01:24;;;;;;;10.70;8.63;;;15.90;87.70;;;;;;5053959;28;20434;-94
2022/04/21 10:03:51;;;;;;;15.20;11.53;;;15.90;86.50;;;;;;5012177;28;20644;-87
2022/04/21 10:06:18;;;;;;;10.63;8.60;;;15.80;88.60;;;;;;5038901;27;20478;-87
2022/04/21 10:08:45;;;;;;;14.03;10.03;;;15.90;89.20;;;;;;4994790;28;20452;-87
2022/04/21 10:11:12;;;;;;;10.17;8.10;;;15.90;89.20;;;;;;5026893;28;20511;-88
2022/04/21 10:13:40;;;;;;;10.03;8.97;;;16.00;89.30;;;;;;5023536;28;20437;-87
2022/04/21 10:16:07;;;;;;;10.17;8.53;;;16.00;87.50;;;;;;5000561;28;20481;-94
2022/04/21 10:18:34;;;;;;;12.50;9.17;;;16.00;87.10;;;;;;5011742;28;20532;-87
2022/04/21 10:21:00;;;;;;;11.60;9.07;;;16.00;87.10;;;;;;5013671;28;20443;-95
2022/04/21 10:23:28;;;;;;;12.10;9.70;;;16.00;87.60;;;;;;5015501;28;20499;-94
2022/04/21 10:26:02;;;;;;;11.50;8.40;;;16.10;86.70;;;;;;5011507;28;20436;-87
2022/04/21 10:28:42;;;;;;;10.33;7.07;;;16.20;86.20;;;;;;5012399;28;20963;-87
2022/04/21 10:31:31;;;;;;;9.00;8.00;;;16.30;84.70;;;;;;5029736;28;20515;-94
2022/04/21 10:34:00;;;;;;;9.40;8.30;;;16.40;84.70;;;;;;5011862;28;20416;-87
2022/04/21 10:37:05;;;;;;;11.60;8.23;;;16.50;85.00;;;;;;5013852;28;20455;-87
2022/04/21 10:39:30;;;;;;;9.97;8.30;;;16.60;85.00;;;;;;5019157;28;20437;-88
2022/04/21 10:42:14;;;;;;;12.57;8.10;;;16.70;84.10;;;;;;4995980;28;20978;-94
2022/04/21 10:44:54;;;;;;;9.70;8.60;;;16.70;84.60;;;;;;5029956;28;20222;-88
2022/04/21 10:47:34;;;;;;;9.97;8.07;;;16.60;84.50;;;;;;5014022;28;20478;-95
2022/04/21 10:50:19;;;;;;;10.37;8.33;;;16.60;84.30;;;;;;5016509;28;20436;-95
2022/04/21 10:58:33;;;;;;;12.20;8.37;;;16.80;84.50;;;;;;5031699;28;20433;-88
2022/04/21 11:01:16;;;;;;;11.60;8.80;;;16.90;84.30;;;;;;5028531;28;20430;-94
2022/04/21 11:03:44;;;;;;;10.20;9.03;;;16.90;83.80;;;;;;5009994;28;20472;-87
2022/04/21 11:06:12;;;;;;;10.90;8.13;;;16.80;83.60;;;;;;4990681;28;20436;-95
2022/04/21 11:08:38;;;;;;;13.90;8.70;;;16.80;84.00;;;;;;4991688;28;20443;-95
2022/04/21 11:11:05;;;;;;;10.70;8.50;;;16.80;83.50;;;;;;5012039;28;20542;-95
2022/04/21 11:13:52;;;;;;;9.23;7.30;;;16.70;82.60;;;;;;5004121;28;20441;-87
2022/04/21 11:16:45;;;;;;;9.67;7.97;;;16.70;82.80;;;;;;5021633;28;20442;-93
2022/04/21 11:19:29;;;;;;;10.80;8.80;;;16.70;82.40;;;;;;5019995;28;20474;-93
2022/04/21 11:21:59;;;;;;;8.83;7.33;;;16.70;82.10;;;;;;5026174;28;20438;-91
2022/04/21 11:24:25;;;;;;;11.53;7.90;;;16.70;82.90;;;;;;4993407;28;20541;-87
2022/04/21 11:26:55;;;;;;;11.43;8.10;;;16.80;83.30;;;;;;5005051;28;20547;-87
2022/04/21 11:29:21;;;;;;;13.13;10.07;;;16.70;83.00;;;;;;4995626;28;20444;-88
2022/04/21 11:31:47;;;;;;;11.57;8.97;;;16.70;84.20;;;;;;5006552;28;20467;-94
2022/04/21 11:34:25;;;;;;;12.53;9.73;;;16.70;84.20;;;;;;5013624;28;20487;-95
2022/04/21 11:36:56;;;;;;;13.00;9.63;;;16.80;83.90;;;;;;5030393;28;20436;-88
2022/04/21 11:39:22;;;;;;;11.80;9.60;;;16.90;84.10;;;;;;5027342;28;20440;-87
2022/04/21 11:41:52;;;;;;;10.77;8.30;;;16.90;83.80;;;;;;5014534;28;20461;-88
2022/04/21 11:44:22;;;;;;;12.07;8.53;;;17.00;83.70;;;;;;5015340;28;20475;-87
2022/04/21 11:46:49;;;;;;;11.47;8.57;;;17.10;84.00;;;;;;5017288;28;20427;-88
2022/04/21 11:49:15;;;;;;;12.70;9.43;;;17.30;83.70;;;;;;5012431;28;20448;-88
2022/04/21 11:51:42;;;;;;;11.43;8.70;;;17.30;83.80;;;;;;5008224;28;20438;-87
2022/04/21 11:54:10;;;;;;;12.40;8.90;;;17.40;83.60;;;;;;5013221;28;20886;-88
2022/04/21 11:56:38;;;;;;;10.90;8.07;;;17.40;84.40;;;;;;5015007;28;20436;-94
2022/04/21 11:59:07;;;;;;;9.93;7.70;;;17.40;83.40;;;;;;5014513;28;20777;-95
2022/04/21 12:07:03;;;;;;;11.23;8.67;;;17.50;80.50;;;;;;5028826;28;20963;-88
2022/04/21 12:09:34;;;;;;;10.90;8.63;;;17.40;79.80;;;;;;5015198;28;20830;-88
2022/04/21 12:12:02;;;;;;;12.80;8.63;;;17.40;80.10;;;;;;5060386;27;20443;-87
2022/04/21 12:14:30;;;;;;;10.43;7.50;;;17.30;80.20;;;;;;5117722;27;20434;-87
2022/04/21 12:17:00;;;;;;;9.50;8.20;;;17.30;78.20;;;;;;5050134;27;20819;-94
2022/04/21 12:19:33;;;;;;;7.60;6.60;;;17.30;76.80;;;;;;5029755;28;20514;-88
2022/04/21 12:22:08;;;;;;;11.10;7.30;;;17.30;77.60;;;;;;5021285;28;20451;-87
2022/04/21 12:24:37;;;;;;;11.03;8.03;;;17.30;77.40;;;;;;5034728;27;21053;-88
2022/04/21 12:27:11;;;;;;;10.97;8.10;;;17.40;77.50;;;;;;5043982;27;20530;-87
2022/04/21 12:29:56;;;;;;;12.27;9.63;;;17.40;77.50;;;;;;5115869;27;20427;-94
2022/04/21 12:32:25;;;;;;;8.83;7.93;;;17.30;77.10;;;;;;5057656;28;20466;-88
2022/04/21 12:34:51;;;;;;;9.47;7.77;;;17.30;77.30;;;;;;5012477;28;20451;-87
2022/04/21 12:37:27;;;;;;;9.67;7.53;;;17.40;78.00;;;;;;5029808;28;20935;-87
2022/04/21 12:39:54;;;;;;;8.60;7.50;;;17.50;77.50;;;;;;5015635;28;20463;-94
2022/04/21 12:42:21;;;;;;;13.07;8.73;;;17.60;77.00;;;;;;5056039;27;20450;-94
2022/04/21 12:44:47;;;;;;;10.87;7.70;;;17.70;76.80;;;;;;5017700;28;20582;-94
2022/04/21 12:47:18;;;;;;;8.40;7.50;;;17.70;76.80;;;;;;5011232;28;20519;-87
2022/04/21 12:49:59;;;;;;;8.60;7.13;;;17.70;76.50;;;;;;5025820;28;20663;-95
2022/04/21 12:52:29;;;;;;;9.53;7.50;;;17.60;76.80;;;;;;5013657;28;20447;-88
2022/04/21 12:54:54;;;;;;;8.37;7.43;;;17.70;76.30;;;;;;5015683;28;20478;-87
2022/04/21 12:57:20;;;;;;;9.37;7.50;;;17.80;76.10;;;;;;5013812;28;20429;-87
2022/04/21 12:59:46;;;;;;;10.57;8.20;;;17.80;76.00;;;;;;4995295;28;20209;-94
2022/04/21 13:02:13;;;;;;;9.03;7.27;;;17.70;75.90;;;;;;4998123;28;20210;-87
2022/04/21 13:04:40;;;;;;;9.03;7.67;;;17.70;75.90;;;;;;4996139;28;20891;-93
2022/04/21 13:07:23;;;;;;;8.60;7.70;;;17.70;76.70;;;;;;5015440;27;20989;-93
2022/04/21 13:09:58;;;;;;;10.50;8.07;;;17.70;75.40;;;;;;5083325;27;20474;-93
2022/04/21 13:12:24;;;;;;;9.27;8.00;;;17.70;76.10;;;;;;5021001;28;20890;-87
2022/04/21 13:14:50;;;;;;;9.90;7.87;;;17.70;76.50;;;;;;5110968;27;20905;-88
2022/04/21 13:17:17;;;;;;;10.57;8.67;;;17.70;76.60;;;;;;5107715;27;20534;-93
2022/04/21 13:19:42;;;;;;;12.60;8.77;;;17.80;76.80;;;;;;5054019;28;20431;-88
2022/04/21 13:22:12;;;;;;;11.20;8.73;;;17.80;76.40;;;;;;5011812;28;20466;-93
2022/04/21 13:24:37;;;;;;;10.40;7.93;;;17.90;76.90;;;;;;5011094;28;20274;-95
2022/04/21 13:27:04;;;;;;;10.77;7.00;;;17.90;75.60;;;;;;5013399;28;20864;-92
2022/04/21 13:29:29;;;;;;;9.43;7.80;;;18.00;75.70;;;;;;5017630;28;20541;-93
2022/04/21 13:34:40;;;;;;;10.23;8.80;;;18.10;76.10;;;;;;5036792;27;20498;-94
2022/04/21 13:37:06;;;;;;;11.50;7.20;;;18.10;75.10;;;;;;5019139;28;21161;-92
2022/04/21 13:39:34;;;;;;;7.83;6.50;;;18.10;75.30;;;;;;5026114;28;20213;-93